createdAt,value
2023-03-03T00:00:25.863Z,95.30
2023-03-03T00:03:19.471Z,95.20
2023-03-03T00:06:06.111Z,95.10
2023-03-03T00:08:52.192Z,95.10
2023-03-03T00:11:38.222Z,94.70
2023-03-03T00:14:32.157Z,94.60
2023-03-03T00:17:24.883Z,94.20
2023-03-03T00:20:35.886Z,94.40
2023-03-03T00:23:43.218Z,94.40
2023-03-03T00:26:36.510Z,94.50
2023-03-03T00:29:35.997Z,94.60
2023-03-03T00:32:23.870Z,94.80
2023-03-03T00:35:27.664Z,94.60
2023-03-03T00:38:18.525Z,94.60
2023-03-03T00:41:11.456Z,94.40
2023-03-03T00:43:58.574Z,94.50
2023-03-03T00:46:44.744Z,94.40
2023-03-03T00:49:30.742Z,94.30
2023-03-03T00:52:18.510Z,94.30
2023-03-03T00:55:06.258Z,94.10
2023-03-03T00:57:52.122Z,94.30
2023-03-03T01:00:42.821Z,94.60
2023-03-03T01:03:32.041Z,94.70
2023-03-03T01:06:17.866Z,94.70
2023-03-03T01:09:04.053Z,94.80
2023-03-03T01:11:50.799Z,94.70
2023-03-03T01:14:36.971Z,94.50
2023-03-03T01:17:23.104Z,94.80
2023-03-03T01:20:11.428Z,94.80
2023-03-03T01:22:57.612Z,95.10
2023-03-03T01:25:43.688Z,94.90
2023-03-03T01:28:29.724Z,94.90
2023-03-03T01:31:15.723Z,94.90
2023-03-03T01:34:01.815Z,95.20
2023-03-03T01:36:47.689Z,95.50
2023-03-03T01:39:33.758Z,95.60
2023-03-03T01:42:20.268Z,95.90
2023-03-03T01:45:12.744Z,95.50
2023-03-03T01:48:01.594Z,95.80
2023-03-03T01:50:56.006Z,96.30
2023-03-03T01:53:48.016Z,96.30
2023-03-03T01:56:34.813Z,96.30
2023-03-03T01:59:25.131Z,96.30
2023-03-03T02:02:11.959Z,96.60
2023-03-03T02:04:58.920Z,96.90
2023-03-03T02:07:45.822Z,97.30
2023-03-03T02:10:31.987Z,97.20
2023-03-03T02:13:17.967Z,96.60
2023-03-03T02:16:04.658Z,96.50
2023-03-03T02:18:50.954Z,95.90
2023-03-03T02:21:37.228Z,95.40
2023-03-03T02:24:39.605Z,95.20
2023-03-03T02:27:28.043Z,95.20
2023-03-03T02:30:18.301Z,94.90
2023-03-03T02:33:05.108Z,94.90
2023-03-03T02:35:51.455Z,94.90
2023-03-03T02:38:44.659Z,95.00
2023-03-03T02:41:44.933Z,94.40
2023-03-03T02:44:32.817Z,94.60
2023-03-03T02:47:19.487Z,94.40
2023-03-03T02:50:06.034Z,94.20
2023-03-03T02:52:51.792Z,94.70
2023-03-03T02:55:38.676Z,95.20
2023-03-03T02:58:25.320Z,95.30
2023-03-03T03:01:11.742Z,95.80
2023-03-03T03:03:58.968Z,96.30
2023-03-03T03:06:45.541Z,96.70
2023-03-03T03:09:33.066Z,96.60
2023-03-03T03:12:21.185Z,96.40
2023-03-03T03:15:10.630Z,96.00
2023-03-03T03:17:56.705Z,95.80
2023-03-03T03:20:43.374Z,95.50
2023-03-03T03:23:29.838Z,95.40
2023-03-03T03:26:17.018Z,95.00
2023-03-03T03:29:03.462Z,94.80
2023-03-03T03:31:49.888Z,94.80
2023-03-03T03:34:36.056Z,94.70
2023-03-03T03:37:23.692Z,94.50
2023-03-03T03:40:11.415Z,94.80
2023-03-03T03:42:57.781Z,95.30
2023-03-03T03:45:44.125Z,95.60
2023-03-03T03:48:31.382Z,95.80
2023-03-03T03:51:19.213Z,96.10
2023-03-03T03:54:05.618Z,96.20
2023-03-03T03:56:54.755Z,96.20
2023-03-03T03:59:41.994Z,96.30
2023-03-03T04:02:28.532Z,95.90
2023-03-03T04:05:15.578Z,95.60
2023-03-03T04:08:02.383Z,95.60
2023-03-03T04:10:48.650Z,95.30
2023-03-03T04:13:35.522Z,95.30
2023-03-03T04:16:25.070Z,95.40
2023-03-03T04:19:11.304Z,95.30
2023-03-03T04:22:00.340Z,95.20
2023-03-03T04:24:48.637Z,95.00
2023-03-03T04:27:37.232Z,95.00
2023-03-03T04:30:23.955Z,95.00
2023-03-03T04:33:13.774Z,95.10
2023-03-03T04:36:01.306Z,95.20
2023-03-03T04:38:47.395Z,94.90
2023-03-03T04:41:33.640Z,94.90
2023-03-03T04:44:20.041Z,95.10
2023-03-03T04:47:07.470Z,95.30
2023-03-03T04:49:54.147Z,95.60
2023-03-03T04:52:40.857Z,95.80
2023-03-03T04:55:28.123Z,95.90
2023-03-03T04:58:16.012Z,96.00
2023-03-03T05:01:03.195Z,96.20
2023-03-03T05:03:51.314Z,96.30
2023-03-03T05:06:38.055Z,96.20
2023-03-03T05:09:24.431Z,96.30
2023-03-03T05:12:10.609Z,96.30
2023-03-03T05:14:56.489Z,96.40
2023-03-03T05:17:42.602Z,96.60
2023-03-03T05:20:28.702Z,96.50
2023-03-03T05:23:15.166Z,96.60
2023-03-03T05:26:01.231Z,96.70
2023-03-03T05:28:47.112Z,96.80
2023-03-03T05:31:33.148Z,96.80
2023-03-03T05:34:19.049Z,96.70
2023-03-03T05:37:06.696Z,96.80
2023-03-03T05:39:52.744Z,96.70
2023-03-03T05:42:38.649Z,96.60
2023-03-03T05:45:25.075Z,96.70
2023-03-03T05:48:11.229Z,96.60
2023-03-03T05:51:00.834Z,96.60
2023-03-03T05:53:46.887Z,96.60
2023-03-03T05:56:32.964Z,96.50
2023-03-03T05:59:19.705Z,96.60
2023-03-03T06:02:05.999Z,96.80
2023-03-03T06:04:52.211Z,96.70
2023-03-03T06:07:38.648Z,96.80
2023-03-03T06:10:24.839Z,96.70
2023-03-03T06:13:15.494Z,96.80
2023-03-03T06:16:02.398Z,96.80
2023-03-03T06:18:48.629Z,96.90
2023-03-03T06:21:34.603Z,96.80
2023-03-03T06:24:20.648Z,96.80
2023-03-03T06:27:06.554Z,96.90
2023-03-03T06:29:53.320Z,96.90
2023-03-03T06:32:39.462Z,96.90
2023-03-03T06:35:25.747Z,96.70
2023-03-03T06:38:12.073Z,96.60
2023-03-03T06:40:58.640Z,96.50
2023-03-03T06:43:45.044Z,96.40
2023-03-03T06:46:31.394Z,96.50
2023-03-03T06:49:17.779Z,96.50
2023-03-03T06:52:14.285Z,96.50
2023-03-03T06:55:10.104Z,96.30
2023-03-03T06:57:56.216Z,96.30
2023-03-03T07:00:58.389Z,96.30
2023-03-03T07:03:45.599Z,96.30
2023-03-03T07:06:32.633Z,96.20
2023-03-03T07:09:28.155Z,96.30
2023-03-03T07:12:22.219Z,96.40
2023-03-03T07:15:22.180Z,96.50
2023-03-03T07:18:38.018Z,96.30
2023-03-03T07:21:31.764Z,96.40
2023-03-03T07:24:26.342Z,96.50
2023-03-03T07:27:31.685Z,96.50
2023-03-03T07:30:36.152Z,96.10
2023-03-03T07:33:45.632Z,95.60
2023-03-03T07:36:36.171Z,95.40
2023-03-03T07:39:32.225Z,94.90
2023-03-03T07:42:28.406Z,94.70
2023-03-03T07:45:32.494Z,94.40
2023-03-03T07:48:45.278Z,94.00
2023-03-03T07:51:42.155Z,93.70
2023-03-03T07:54:40.476Z,93.80
2023-03-03T07:57:37.971Z,93.50
2023-03-03T08:00:24.594Z,93.60
2023-03-03T08:03:20.756Z,93.40
2023-03-03T08:06:35.685Z,93.60
2023-03-03T08:09:31.257Z,94.30
2023-03-03T08:12:42.830Z,94.50
2023-03-03T08:15:33.832Z,94.50
2023-03-03T08:18:25.046Z,94.60
2023-03-03T08:21:19.078Z,94.30
2023-03-03T08:24:05.340Z,94.20
2023-03-03T08:26:51.425Z,94.80
2023-03-03T08:29:37.670Z,94.30
2023-03-03T08:32:23.692Z,93.70
2023-03-03T08:35:10.213Z,93.60
2023-03-03T08:37:56.316Z,93.40
2023-03-03T08:40:42.951Z,93.30
2023-03-03T08:43:29.693Z,92.50
2023-03-03T08:46:16.587Z,92.00
2023-03-03T08:49:02.915Z,91.50
2023-03-03T08:51:49.375Z,91.30
2023-03-03T08:54:35.275Z,91.30
2023-03-03T08:57:21.195Z,90.70
2023-03-03T09:00:13.082Z,90.50
2023-03-03T09:02:59.195Z,89.80
2023-03-03T09:05:45.752Z,89.70
2023-03-03T09:08:32.006Z,90.30
2023-03-03T09:11:24.810Z,90.30
2023-03-03T09:14:13.511Z,89.80
2023-03-03T09:16:59.867Z,90.30
2023-03-03T09:19:46.409Z,88.80
2023-03-03T09:22:36.252Z,89.50
2023-03-03T09:25:33.405Z,89.70
2023-03-03T09:28:31.605Z,88.40
2023-03-03T09:31:27.460Z,88.10
2023-03-03T09:34:20.803Z,87.50
2023-03-03T09:37:22.859Z,87.20
2023-03-03T09:40:35.196Z,87.20
2023-03-03T09:43:37.618Z,86.20
2023-03-03T09:46:30.854Z,85.20
2023-03-03T09:49:33.990Z,84.90
2023-03-03T09:52:35.035Z,84.30
2023-03-03T09:55:42.968Z,83.80
2023-03-03T09:58:45.800Z,84.30
2023-03-03T10:01:59.898Z,83.40
2023-03-03T10:05:00.613Z,83.60
2023-03-03T10:07:52.726Z,84.80
2023-03-03T10:11:05.100Z,84.40
2023-03-03T10:14:11.671Z,85.20
2023-03-03T10:17:18.888Z,84.20
2023-03-03T10:20:49.700Z,84.70
2023-03-03T10:23:39.333Z,85.00
2023-03-03T10:27:09.820Z,84.70
2023-03-03T10:30:11.339Z,84.20
2023-03-03T10:33:23.098Z,84.40
2023-03-03T10:36:21.570Z,83.20
2023-03-03T10:39:14.376Z,81.80
2023-03-03T10:42:12.256Z,80.90
2023-03-03T10:45:35.164Z,80.60
2023-03-03T10:48:49.512Z,81.50
2023-03-03T10:51:57.869Z,82.60
2023-03-03T10:54:59.859Z,83.90
2023-03-03T10:57:48.744Z,84.00
2023-03-03T11:01:14.858Z,82.40
2023-03-03T11:04:41.031Z,82.20
2023-03-03T11:07:42.934Z,82.60
2023-03-03T11:10:48.256Z,81.70
2023-03-03T11:13:52.064Z,80.10
2023-03-03T11:17:17.318Z,81.50
2023-03-03T11:20:43.034Z,81.60
2023-03-03T11:24:13.360Z,82.30
2023-03-03T11:27:19.707Z,83.20
2023-03-03T11:30:41.112Z,83.00
2023-03-03T11:33:30.505Z,82.10
2023-03-03T11:36:42.199Z,84.30
2023-03-03T11:39:28.450Z,82.80
2023-03-03T11:42:35.130Z,82.60
2023-03-03T11:45:29.587Z,82.90
2023-03-03T11:48:18.632Z,81.40
2023-03-03T11:51:31.280Z,81.40
2023-03-03T11:54:29.363Z,79.80
2023-03-03T11:57:44.911Z,78.20
2023-03-03T12:00:40.118Z,77.60
2023-03-03T12:03:51.085Z,78.00
2023-03-03T12:07:12.991Z,78.30
2023-03-03T12:10:08.696Z,78.50
2023-03-03T12:13:32.260Z,75.20
2023-03-03T12:16:18.425Z,70.50
2023-03-03T12:19:19.944Z,65.60
2023-03-03T12:22:29.636Z,62.20
2023-03-03T12:25:54.263Z,60.00
2023-03-03T12:28:59.460Z,60.20
2023-03-03T12:32:07.737Z,60.90
2023-03-03T12:35:15.851Z,60.80
2023-03-03T12:38:18.017Z,61.60
2023-03-03T12:41:20.432Z,62.80
2023-03-03T12:44:22.857Z,62.70
2023-03-03T12:47:35.684Z,61.10
2023-03-03T12:50:43.152Z,59.40
2023-03-03T12:53:38.108Z,56.60
2023-03-03T12:56:35.165Z,55.60
2023-03-03T12:59:21.360Z,53.50
2023-03-03T13:02:25.753Z,51.50
2023-03-03T13:05:23.359Z,50.70
2023-03-03T13:08:21.539Z,51.40
2023-03-03T13:11:38.035Z,52.30
2023-03-03T13:14:49.526Z,53.10
2023-03-03T13:17:49.477Z,53.00
2023-03-03T13:20:51.797Z,53.10
2023-03-03T13:23:56.209Z,52.40
2023-03-03T13:27:04.892Z,53.10
2023-03-03T13:30:09.034Z,53.50
2023-03-03T13:33:02.296Z,54.20
2023-03-03T13:36:10.369Z,53.90
2023-03-03T13:39:02.762Z,53.90
2023-03-03T13:41:57.139Z,52.40
2023-03-03T13:44:47.595Z,52.10
2023-03-03T13:48:14.100Z,51.30
2023-03-03T13:51:04.821Z,50.00
2023-03-03T13:54:07.992Z,50.00
2023-03-03T13:57:09.081Z,49.50
2023-03-03T13:59:58.210Z,50.40
2023-03-03T14:03:04.497Z,50.90
2023-03-03T14:05:52.586Z,51.40
2023-03-03T14:08:50.430Z,50.60
2023-03-03T14:12:01.616Z,51.70
2023-03-03T14:14:52.570Z,51.20
2023-03-03T14:18:11.660Z,52.20
2023-03-03T14:21:06.388Z,52.10
2023-03-03T14:24:31.163Z,51.20
2023-03-03T14:27:25.128Z,51.30
2023-03-03T14:30:33.161Z,51.00
2023-03-03T14:33:22.948Z,51.20
2023-03-03T14:36:13.222Z,50.90
2023-03-03T14:38:59.700Z,50.30
2023-03-03T14:41:46.125Z,51.40
2023-03-03T14:44:38.878Z,51.90
2023-03-03T14:47:27.825Z,52.10
2023-03-03T14:50:38.503Z,52.20
2023-03-03T14:53:35.818Z,53.40
2023-03-03T14:56:23.983Z,54.00
2023-03-03T14:59:30.771Z,54.90
2023-03-03T15:02:16.702Z,56.80
2023-03-03T15:05:23.901Z,57.70
2023-03-03T15:08:11.353Z,58.60
2023-03-03T15:11:32.359Z,58.50
2023-03-03T15:14:29.709Z,59.40
2023-03-03T15:17:29.469Z,59.80
2023-03-03T15:20:43.120Z,60.20
2023-03-03T15:23:48.175Z,59.90
2023-03-03T15:26:43.410Z,60.30
2023-03-03T15:29:52.840Z,60.10
2023-03-03T15:33:08.610Z,60.00
2023-03-03T15:36:04.163Z,60.40
2023-03-03T15:38:59.476Z,60.60
2023-03-03T15:42:11.884Z,61.20
2023-03-03T15:45:28.396Z,61.30
2023-03-03T15:48:28.120Z,61.70
2023-03-03T15:51:20.617Z,61.70
2023-03-03T15:54:33.386Z,62.30
2023-03-03T15:57:38.257Z,62.80
2023-03-03T16:01:02.249Z,62.70
2023-03-03T16:04:20.170Z,62.30
2023-03-03T16:07:25.951Z,62.40
2023-03-03T16:10:45.420Z,62.10
2023-03-03T16:13:46.353Z,61.60
2023-03-03T16:16:51.108Z,62.50
2023-03-03T16:19:49.233Z,63.70
2023-03-03T16:22:35.344Z,64.30
2023-03-03T16:25:55.263Z,64.80
2023-03-03T16:29:16.310Z,65.20
2023-03-03T16:32:18.182Z,65.00
2023-03-03T16:35:17.767Z,66.10
2023-03-03T16:38:18.444Z,66.40
2023-03-03T16:41:29.362Z,66.90
2023-03-03T16:44:49.233Z,67.30
2023-03-03T16:47:47.152Z,67.70
2023-03-03T16:51:00.262Z,69.00
2023-03-03T16:54:00.664Z,69.90
2023-03-03T16:56:59.245Z,69.70
2023-03-03T16:59:51.784Z,70.30
2023-03-03T17:02:54.604Z,70.10
2023-03-03T17:05:48.032Z,70.20
2023-03-03T17:08:39.768Z,70.80
2023-03-03T17:12:02.668Z,70.90
2023-03-03T17:15:04.375Z,71.10
2023-03-03T17:18:11.067Z,71.40
2023-03-03T17:21:01.898Z,71.40
2023-03-03T17:23:53.866Z,71.70
2023-03-03T17:26:57.195Z,71.80
2023-03-03T17:29:50.835Z,72.20
2023-03-03T17:32:45.172Z,72.40
2023-03-03T17:35:59.134Z,73.20
2023-03-03T17:39:10.250Z,73.10
2023-03-03T17:42:19.973Z,73.30
2023-03-03T17:45:17.676Z,73.70
2023-03-03T17:48:03.781Z,73.50
2023-03-03T17:51:04.830Z,74.10
2023-03-03T17:54:17.632Z,74.80
2023-03-03T17:57:14.079Z,74.90
2023-03-03T18:00:42.418Z,75.50
2023-03-03T18:03:43.445Z,76.30
2023-03-03T18:06:55.939Z,76.50
2023-03-03T18:10:06.612Z,76.90
2023-03-03T18:13:02.909Z,77.10
2023-03-03T18:16:10.681Z,77.40
2023-03-03T18:19:12.799Z,77.90
2023-03-03T18:22:07.526Z,78.40
2023-03-03T18:25:00.555Z,78.40
2023-03-03T18:28:07.880Z,78.70
2023-03-03T18:31:00.813Z,78.80
2023-03-03T18:34:17.667Z,79.30
2023-03-03T18:37:38.200Z,79.50
2023-03-03T18:40:36.039Z,79.80
2023-03-03T18:43:43.933Z,80.10
2023-03-03T18:46:36.234Z,80.80
2023-03-03T18:49:48.482Z,81.50
2023-03-03T18:52:36.411Z,81.70
2023-03-03T18:55:26.247Z,82.10
2023-03-03T18:58:15.511Z,82.20
2023-03-03T19:01:33.469Z,82.20
2023-03-03T19:04:22.494Z,82.40
2023-03-03T19:07:26.810Z,82.60
2023-03-03T19:10:22.207Z,82.40
2023-03-03T19:13:46.823Z,82.10
2023-03-03T19:16:36.850Z,81.20
2023-03-03T19:19:28.871Z,80.90
2023-03-03T19:22:22.764Z,81.60
2023-03-03T19:25:09.018Z,82.20
2023-03-03T19:28:06.785Z,82.50
2023-03-03T19:31:02.025Z,82.00
2023-03-03T19:33:59.421Z,82.40
2023-03-03T19:37:16.732Z,83.00
2023-03-03T19:40:23.192Z,82.90
2023-03-03T19:43:23.816Z,83.50
2023-03-03T19:46:38.183Z,82.90
2023-03-03T19:49:56.575Z,82.60
2023-03-03T19:52:56.603Z,83.70
2023-03-03T19:56:13.890Z,85.00
2023-03-03T19:59:18.137Z,86.30
2023-03-03T20:02:22.964Z,86.40
2023-03-03T20:05:48.610Z,86.60
2023-03-03T20:08:43.845Z,87.10
2023-03-03T20:11:51.032Z,87.40
2023-03-03T20:14:46.750Z,88.30
2023-03-03T20:17:38.777Z,89.50
2023-03-03T20:20:42.931Z,90.30
2023-03-03T20:23:29.161Z,90.40
2023-03-03T20:26:59.796Z,90.50
2023-03-03T20:30:05.854Z,90.30
2023-03-03T20:33:02.680Z,90.30
2023-03-03T20:36:11.108Z,90.30
2023-03-03T20:39:07.166Z,90.60
2023-03-03T20:42:10.293Z,90.80
2023-03-03T20:45:02.241Z,91.20
2023-03-03T20:47:48.353Z,91.80
2023-03-03T20:51:01.742Z,92.10
2023-03-03T20:54:10.048Z,92.50
2023-03-03T20:57:15.816Z,92.50
2023-03-03T21:00:49.363Z,92.70
2023-03-03T21:03:41.977Z,92.90
2023-03-03T21:06:38.809Z,93.10
2023-03-03T21:09:36.220Z,93.40
2023-03-03T21:12:30.947Z,93.90
2023-03-03T21:15:29.804Z,93.90
2023-03-03T21:18:25.121Z,93.80
2023-03-03T21:21:11.427Z,93.90
2023-03-03T21:23:59.090Z,94.10
2023-03-03T21:26:48.276Z,94.30
2023-03-03T21:29:35.897Z,94.30
2023-03-03T21:32:40.535Z,94.50
2023-03-03T21:35:26.755Z,94.80
2023-03-03T21:38:32.402Z,95.10
2023-03-03T21:41:19.510Z,95.10
2023-03-03T21:44:34.672Z,95.20
2023-03-03T21:47:23.635Z,95.30
2023-03-03T21:50:11.467Z,95.40
2023-03-03T21:52:57.775Z,95.40
2023-03-03T21:55:48.729Z,95.60
2023-03-03T21:58:35.056Z,95.40
2023-03-03T22:01:22.092Z,95.10
2023-03-03T22:04:08.766Z,95.10
2023-03-03T22:06:54.665Z,95.10
2023-03-03T22:09:40.722Z,95.10
2023-03-03T22:12:26.661Z,95.40
2023-03-03T22:15:13.711Z,95.20
2023-03-03T22:18:00.707Z,95.50
2023-03-03T22:20:47.131Z,95.80
2023-03-03T22:23:33.520Z,95.90
2023-03-03T22:26:21.664Z,95.40
2023-03-03T22:29:07.737Z,95.00
2023-03-03T22:31:53.905Z,95.00
2023-03-03T22:34:40.473Z,95.10
2023-03-03T22:37:26.371Z,95.10
2023-03-03T22:40:12.980Z,95.00
2023-03-03T22:42:59.803Z,95.30
2023-03-03T22:45:45.751Z,95.30
2023-03-03T22:48:32.101Z,95.60
2023-03-03T22:51:21.978Z,95.60
2023-03-03T22:54:07.932Z,95.80
2023-03-03T22:56:53.828Z,95.80
2023-03-03T22:59:39.676Z,96.10
2023-03-03T23:02:25.794Z,96.00
2023-03-03T23:05:12.083Z,96.00
2023-03-03T23:07:58.813Z,95.90
2023-03-03T23:10:45.222Z,95.20
2023-03-03T23:13:32.399Z,95.20
2023-03-03T23:16:18.550Z,95.10
2023-03-03T23:19:04.976Z,95.10
2023-03-03T23:21:50.993Z,95.60
2023-03-03T23:24:37.007Z,96.00
2023-03-03T23:27:22.992Z,96.20
2023-03-03T23:30:10.473Z,96.50
2023-03-03T23:32:56.866Z,96.90
2023-03-03T23:35:45.126Z,97.00
2023-03-03T23:38:31.071Z,96.90
2023-03-03T23:41:16.920Z,96.70
2023-03-03T23:44:03.683Z,96.60
2023-03-03T23:46:49.811Z,96.30
2023-03-03T23:49:36.292Z,96.20
2023-03-03T23:52:22.177Z,96.40
2023-03-03T23:55:08.894Z,96.30
2023-03-03T23:57:55.179Z,96.30
